Latest Weather Observations for Launceston

IDT60801

Issued at 4:31 pm EST Monday 30 May 2016 (issued every 30 minutes, with the page automatically refreshed every 10 minutes)

About weather observations | Map of weather stations | Latest weather observations for TAS | Other Formats
Station Details ID: 091237 Name: LAUNCESTON (TI TREE BEND) Lat: -41.42 Lon: 147.12 Height: 5.0 m
Data from the previous 72 hours. | See also: Recent months at Launceston
Date/Time
EST
Temp
°C
App
Temp
°C
Dew
Point
Rel
Hum
%
Delta-T
°C
Wind Press
QNH
hPa
Press
MSL
hPa
Rain
since 9 am
mm
Dir
 
Spd
km/h
Gust
km/h
Spd
kts
Gust
kts
30/04:30pm 11.2 10.3 5.9 70 2.5 CALM 0 0 0 0 - - 0.0
30/04:00pm 12.9 12.1 6.3 64 3.1 CALM 0 0 0 0 - - 0.0
30/03:30pm 13.4 12.6 6.3 62 3.4 CALM 0 0 0 0 - - 0.0
30/03:00pm 14.4 13.9 7.7 64 3.3 CALM 0 2 0 1 - - 0.0
30/02:30pm 14.1 13.6 7.9 66 3.1 CALM 0 0 0 0 - - 0.0
30/02:00pm 11.8 10.8 7.3 74 2.2 WNW 2 4 1 2 - - 0.0
30/01:30pm 11.4 10.0 7.3 76 2.0 NW 4 6 2 3 - - 0.0
30/01:00pm 11.8 10.3 6.7 71 2.4 N 4 6 2 3 - - 0.0
30/12:30pm 11.7 10.2 7.0 73 2.2 N 4 6 2 3 - - 0.0
30/12:00pm 10.7 9.2 6.6 76 1.9 NNE 4 6 2 3 - - 0.0
30/11:30am 10.9 9.4 6.6 75 2.0 NNE 4 6 2 3 - - 0.0
30/11:00am 9.7 8.4 6.2 79 1.6 ENE 2 6 1 3 - - 0.0
30/10:30am 8.9 7.0 6.5 85 1.1 E 6 7 3 4 - - 0.0
30/10:00am 7.3 5.6 6.1 92 0.5 ENE 4 4 2 2 - - 0.0
30/09:30am 6.0 4.6 5.6 97 0.2 E 2 4 1 2 - - 0.0
30/09:00am 4.3 2.2 4.0 98 0.1 ESE 4 7 2 4 - - 0.0
30/08:30am 2.5 0.5 2.4 99 0.0 ESE 2 2 1 1 - - 0.0
30/08:00am 2.7 0.4 2.6 99 0.0 ENE 4 6 2 3 - - 0.0
30/07:30am 1.4 -0.4 1.3 99 0.0 CALM 0 4 0 2 - - 0.0
30/07:00am 1.2 -0.6 1.1 99 0.0 CALM 0 0 0 0 - - 0.0
30/06:30am 1.3 -0.5 1.2 99 0.0 CALM 0 0 0 0 - - 0.0
30/06:00am 1.7 -0.8 1.4 98 0.1 E 4 6 2 3 - - 0.0
30/05:30am 1.5 -0.3 1.2 98 0.1 CALM 0 0 0 0 - - 0.0
30/05:00am 1.7 -0.1 1.4 98 0.1 CALM 0 4 0 2 - - 0.0
30/04:30am 1.8 0.0 1.5 98 0.1 CALM 0 0 0 0 - - 0.0
30/04:00am 2.3 0.2 2.0 98 0.1 E 2 4 1 2 - - 0.0
30/03:30am 3.0 1.4 2.7 98 0.1 CALM 0 0 0 0 - - 0.0
30/03:00am 2.8 1.2 2.5 98 0.1 CALM 0 0 0 0 - - 0.0
30/02:30am 2.5 0.5 2.2 98 0.1 S 2 2 1 1 - - 0.0
30/02:00am 2.7 1.1 2.4 98 0.1 CALM 0 0 0 0 - - 0.0
30/01:30am 2.9 1.3 2.6 98 0.1 CALM 0 0 0 0 - - 0.0
30/01:00am 3.2 1.7 2.8 97 0.2 CALM 0 0 0 0 - - 0.0
30/12:30am 3.3 1.4 2.9 97 0.2 S 2 4 1 2 - - 0.0
30/12:00am 3.8 2.4 3.4 97 0.2 CALM 0 0 0 0 - - 0.0
 
Date/Time
EST
Temp
°C
App
Temp
°C
Dew
Point
Rel
Hum
%
Delta-T
°C
Wind Press
QNH
hPa
Press
MSL
hPa
Rain
since 9 am
mm
Dir
 
Spd
km/h
Gust
km/h
Spd
kts
Gust
kts
29/11:30pm 4.7 3.1 4.3 97 0.2 S 2 2 1 1 - - 0.0
29/11:00pm 3.3 1.4 2.7 96 0.2 ESE 2 4 1 2 - - 0.0
29/10:30pm 3.9 2.5 3.3 96 0.2 CALM 0 4 0 2 - - 0.0
29/10:00pm 4.0 1.8 3.3 95 0.3 SE 4 4 2 2 - - 0.0
29/09:30pm 5.5 4.4 4.9 96 0.3 CALM 0 0 0 0 - - 0.0
29/09:00pm 5.6 3.7 4.9 95 0.3 N 4 6 2 3 - - 0.0
29/08:30pm 5.3 3.7 4.4 94 0.4 N 2 2 1 1 - - 0.0
29/08:00pm 6.1 4.6 5.1 93 0.4 NNW 2 4 1 2 - - 0.0
29/07:30pm 6.9 5.6 5.8 93 0.5 E 2 6 1 3 - - 0.0
29/07:00pm 6.5 4.9 4.5 87 0.9 E 2 4 1 2 - - 0.0
29/06:30pm 8.7 6.8 6.5 86 1.0 SSE 6 7 3 4 - - 0.0
29/06:00pm 8.8 8.1 6.8 87 0.9 CALM 0 0 0 0 - - 0.0
29/05:30pm 10.1 8.3 7.0 81 1.5 SSE 6 9 3 5 - - 0.0
29/05:00pm 10.5 8.6 6.8 78 1.7 S 6 7 3 4 - - 0.0
29/04:30pm 11.8 9.9 6.9 72 2.3 S 6 9 3 5 - - 0.0
29/04:00pm 13.0 10.6 6.8 66 3.0 SE 9 15 5 8 - - 0.0
29/03:30pm 13.2 11.2 7.0 66 3.0 SE 7 13 4 7 - - 0.0
29/03:00pm 13.3 10.1 6.9 65 3.1 ESE 13 20 7 11 - - 0.0
29/02:30pm 13.8 11.8 6.9 63 3.3 SE 7 15 4 8 - - 0.0
29/02:00pm 13.4 11.6 7.2 66 3.0 SE 6 11 3 6 - - 0.0
29/01:30pm 11.9 10.8 7.0 72 2.3 NNW 2 4 1 2 - - 0.0
29/01:00pm 11.0 9.9 6.7 75 2.0 NE 2 4 1 2 - - 0.0
29/12:30pm 9.5 7.5 6.2 80 1.5 E 6 6 3 3 - - 0.0
29/12:00pm 8.2 7.2 5.8 85 1.1 CALM 0 0 0 0 - - 0.0
29/11:30am 7.2 6.2 5.8 91 0.6 CALM 0 2 0 1 - - 0.0
29/11:00am 6.3 5.3 5.6 95 0.3 CALM 0 0 0 0 - - 0.0
29/10:30am 5.7 4.6 5.3 97 0.2 CALM 0 2 0 1 - - 0.0
29/10:00am 4.8 3.6 4.4 97 0.2 CALM 0 0 0 0 - - 0.0
29/09:30am 4.0 2.6 3.7 98 0.1 CALM 0 0 0 0 - - 0.0
29/09:00am 3.4 1.5 3.1 98 0.1 N 2 4 1 2 - - 0.0
29/08:30am 2.1 0.4 1.8 98 0.1 CALM 0 0 0 0 - - 0.0
29/08:00am 2.5 0.5 2.2 98 0.1 NE 2 7 1 4 - - 0.0
29/07:30am 1.7 -0.1 1.4 98 0.1 CALM 0 2 0 1 - - 0.0
29/07:00am 1.5 -0.3 1.2 98 0.1 CALM 0 0 0 0 - - 0.0
29/06:30am 2.2 0.5 1.9 98 0.1 CALM 0 0 0 0 - - 0.0
29/06:00am 1.7 -0.5 1.3 97 0.2 ESE 2 4 1 2 - - 0.0
29/05:30am 1.7 -0.1 1.3 97 0.2 CALM 0 0 0 0 - - 0.0
29/05:00am 1.6 -0.2 1.2 97 0.2 CALM 0 0 0 0 - - 0.0
29/04:30am 2.7 1.1 2.3 97 0.2 CALM 0 0 0 0 - - 0.0
29/04:00am 2.5 0.8 1.9 96 0.2 CALM 0 0 0 0 - - 0.0
29/03:30am 3.4 1.9 2.8 96 0.2 CALM 0 0 0 0 - - 0.0
29/03:00am 3.6 2.1 3.0 96 0.2 CALM 0 0 0 0 - - 0.0
29/02:30am 3.6 2.1 3.0 96 0.2 CALM 0 0 0 0 - - 0.0
29/02:00am 3.9 2.1 3.2 95 0.3 ESE 2 4 1 2 - - 0.0
29/01:30am 4.3 2.9 3.4 94 0.4 CALM 0 4 0 2 - - 0.0
29/01:00am 5.3 3.7 4.4 94 0.4 SE 2 4 1 2 - - 0.0
29/12:30am 5.3 4.0 4.3 93 0.4 CALM 0 2 0 1 - - 0.0
29/12:00am 6.1 5.0 4.9 92 0.5 CALM 0 0 0 0 - - 0.0
 
Date/Time
EST
Temp
°C
App
Temp
°C
Dew
Point
Rel
Hum
%
Delta-T
°C
Wind Press
QNH
hPa
Press
MSL
hPa
Rain
since 9 am
mm
Dir
 
Spd
km/h
Gust
km/h
Spd
kts
Gust
kts
28/11:30pm 7.0 6.1 5.9 93 0.5 CALM 0 0 0 0 - - 0.0
28/11:00pm 6.7 5.6 5.3 91 0.6 CALM 0 0 0 0 - - 0.0
28/10:30pm 6.9 5.4 5.2 89 0.7 SSE 2 4 1 2 - - 0.0
28/10:00pm 7.2 5.8 5.3 88 0.8 E 2 6 1 3 - - 0.0
28/09:30pm 7.5 5.4 5.6 88 0.8 E 6 7 3 4 - - 0.0
28/09:00pm 7.9 6.6 5.9 87 0.9 E 2 6 1 3 - - 0.0
28/08:30pm 7.7 6.0 5.7 87 0.9 ESE 4 4 2 2 - - 0.0
28/08:00pm 7.6 6.6 5.6 87 0.9 CALM 0 0 0 0 - - 0.0
28/07:30pm 7.0 5.8 4.8 86 1.0 CALM 0 2 0 1 - - 0.0
28/07:00pm 7.6 5.8 5.6 87 0.9 NNE 4 6 2 3 - - 0.0
28/06:30pm 7.3 6.3 5.4 88 0.8 CALM 0 0 0 0 - - 0.0
28/06:00pm 7.5 6.1 5.5 87 0.9 W 2 6 1 3 - - 0.0
28/05:30pm 8.0 6.9 5.1 82 1.3 CALM 0 0 0 0 - - 0.0
28/05:00pm 9.5 8.0 4.9 73 2.1 SW 2 2 1 1 - - 0.0
28/04:30pm 12.1 9.9 3.6 56 3.8 E 4 4 2 2 - - 0.0
28/04:00pm 13.1 10.7 4.3 55 4.0 E 6 6 3 3 - - 0.0
28/03:30pm 13.2 11.1 3.8 53 4.2 E 4 6 2 3 - - 0.0
28/03:00pm 13.6 11.2 4.2 53 4.3 E 6 9 3 5 - - 0.0
28/02:30pm 13.6 11.1 4.5 54 4.2 ENE 7 9 4 5 - - 0.0
28/02:00pm 13.4 11.1 4.8 56 4.0 SSW 6 9 3 5 - - 0.0
28/01:30pm 13.3 11.5 5.2 58 3.8 SSE 4 9 2 5 - - 0.0
28/01:00pm 12.8 10.5 5.0 59 3.6 E 6 7 3 4 - - 0.0
28/12:30pm 12.4 10.9 5.1 61 3.4 E 2 6 1 3 - - 0.0
28/12:00pm 11.5 9.2 4.9 64 3.0 ENE 6 11 3 6 - - 0.0
28/11:30am 11.0 8.9 6.0 71 2.3 ENE 6 11 3 6 - - 0.0
28/11:00am 9.9 7.8 5.7 75 1.9 ENE 6 7 3 4 - - 0.0
28/10:30am 9.3 7.6 5.7 78 1.6 ENE 4 6 2 3 - - 0.0
28/10:00am 7.5 5.2 5.0 84 1.1 E 6 7 3 4 - - 0.0
28/09:30am 6.4 4.5 4.9 90 0.7 E 4 6 2 3 - - 0.0
28/09:00am 5.4 3.9 5.0 97 0.2 ESE 2 4 1 2 - - 0.0
28/08:30am 3.1 1.2 2.7 97 0.2 SE 2 4 1 2 - - 0.0
28/08:00am 2.8 0.8 2.5 98 0.1 ESE 2 4 1 2 - - 0.0
28/07:30am 1.6 -0.6 1.2 97 0.2 SE 2 4 1 2 - - 0.0
28/07:00am 2.1 -0.4 1.5 96 0.2 ESE 4 6 2 3 - - 0.0
28/06:30am 2.7 0.7 2.1 96 0.2 ESE 2 4 1 2 - - 0.0
28/06:00am 3.5 0.7 3.1 97 0.2 E 7 9 4 5 - - 0.0
28/05:30am 3.7 1.1 3.3 97 0.2 ESE 6 7 3 4 - - 0.0
28/05:00am 3.2 1.3 2.6 96 0.2 SE 2 4 1 2 - - 0.0
28/04:30am 3.5 2.0 2.8 95 0.3 CALM 0 0 0 0 - - 0.0
28/04:00am 3.9 2.4 3.0 94 0.4 CALM 0 0 0 0 - - 0.0
28/03:30am 4.2 2.0 3.2 93 0.4 SE 4 6 2 3 - - 0.0
28/03:00am 4.8 3.4 3.6 92 0.5 CALM 0 0 0 0 - - 0.0
28/02:30am 6.0 4.1 4.8 92 0.5 ESE 4 4 2 2 - - 0.0
28/02:00am 6.5 4.6 5.1 91 0.6 E 4 6 2 3 - - 0.0
28/01:30am 6.8 4.6 5.4 91 0.6 E 6 7 3 4 - - 0.0
28/01:00am 7.0 4.8 5.5 90 0.7 E 6 7 3 4 - - 0.0
28/12:30am 7.3 5.1 5.4 88 0.8 E 6 7 3 4 - - 0.0
28/12:00am 7.7 5.6 5.7 87 0.9 ESE 6 7 3 4 - - 0.0
 
Date/Time
EST
Temp
°C
App
Temp
°C
Dew
Point
Rel
Hum
%
Delta-T
°C
Wind Press
QNH
hPa
Press
MSL
hPa
Rain
since 9 am
mm
Dir
 
Spd
km/h
Gust
km/h
Spd
kts
Gust
kts
27/11:30pm 7.8 5.7 5.6 86 1.0 ESE 6 6 3 3 - - 0.0
27/11:00pm 7.8 5.6 5.1 83 1.2 ESE 6 6 3 3 - - 0.0
27/10:30pm 8.9 6.8 5.6 80 1.5 SSE 6 9 3 5 - - 0.0
27/10:00pm 8.6 6.2 5.4 80 1.4 SSE 7 11 4 6 - - 0.0
27/09:30pm 9.0 6.3 5.4 78 1.6 SSE 9 11 5 6 - - 0.0
27/09:00pm 9.3 6.6 5.7 78 1.6 SSE 9 13 5 7 - - 0.0
27/08:30pm 9.1 6.4 5.7 79 1.5 SSE 9 11 5 6 - - 0.0
27/08:00pm 9.6 7.3 5.6 76 1.8 SSE 7 11 4 6 - - 0.0
27/07:30pm 10.3 7.7 5.9 74 2.0 SSE 9 13 5 7 - - 0.0
27/07:00pm 10.1 7.5 6.1 76 1.9 SSE 9 15 5 8 - - 0.0
27/06:30pm 10.4 7.0 6.0 74 2.0 SSE 13 19 7 10 - - 0.0
27/06:00pm 10.4 7.5 6.4 76 1.9 SE 11 19 6 10 - - 0.0
27/05:30pm 10.5 7.2 6.5 76 1.9 SE 13 20 7 11 - - 0.0
27/05:00pm 10.6 7.4 6.9 78 1.7 SE 13 20 7 11 - - 0.0

Other Formats:

Comma delimited format used in spreadsheet applications
http://www.bom.gov.au/fwo/IDT60801/IDT60801.94969.axf

JavaScript Object Notation format (JSON) in row-major order
http://www.bom.gov.au/fwo/IDT60801/IDT60801.94969.json